sensor_id;sensor_type;location;lat;lon;timestamp;P1;durP1;ratioP1;P2;durP2;ratioP2
25667;SDS011;18003;-33.830;151.202;2022-11-15T00:02:12;2.58;;;1.60;;
25667;SDS011;18003;-33.830;151.202;2022-11-15T00:04:42;2.17;;;1.30;;
25667;SDS011;18003;-33.830;151.202;2022-11-15T00:07:12;3.98;;;1.62;;
25667;SDS011;18003;-33.830;151.202;2022-11-15T00:09:41;3.10;;;1.55;;
25667;SDS011;18003;-33.830;151.202;2022-11-15T00:12:11;3.35;;;1.80;;
25667;SDS011;18003;-33.830;151.202;2022-11-15T00:14:41;3.10;;;1.60;;
25667;SDS011;18003;-33.830;151.202;2022-11-15T00:17:11;4.53;;;1.60;;
25667;SDS011;18003;-33.830;151.202;2022-11-15T00:19:41;3.52;;;1.65;;
25667;SDS011;18003;-33.830;151.202;2022-11-15T00:22:12;7.67;;;2.98;;
25667;SDS011;18003;-33.830;151.202;2022-11-15T00:24:45;14.03;;;3.27;;
25667;SDS011;18003;-33.830;151.202;2022-11-15T00:27:15;13.78;;;3.83;;
25667;SDS011;18003;-33.830;151.202;2022-11-15T00:29:45;10.88;;;3.35;;
25667;SDS011;18003;-33.830;151.202;2022-11-15T00:32:14;10.98;;;3.37;;
25667;SDS011;18003;-33.830;151.202;2022-11-15T00:34:44;14.28;;;3.58;;
25667;SDS011;18003;-33.830;151.202;2022-11-15T00:37:14;13.78;;;3.85;;
25667;SDS011;18003;-33.830;151.202;2022-11-15T00:39:44;11.25;;;3.27;;
25667;SDS011;18003;-33.830;151.202;2022-11-15T00:42:14;11.35;;;3.52;;
25667;SDS011;18003;-33.830;151.202;2022-11-15T00:44:44;12.05;;;3.10;;
25667;SDS011;18003;-33.830;151.202;2022-11-15T00:47:14;12.25;;;3.70;;
25667;SDS011;18003;-33.830;151.202;2022-11-15T00:49:46;8.70;;;3.10;;
25667;SDS011;18003;-33.830;151.202;2022-11-15T00:52:17;10.63;;;3.00;;
25667;SDS011;18003;-33.830;151.202;2022-11-15T00:54:47;11.73;;;3.43;;
25667;SDS011;18003;-33.830;151.202;2022-11-15T00:57:17;11.43;;;3.10;;
25667;SDS011;18003;-33.830;151.202;2022-11-15T00:59:47;12.98;;;3.42;;
25667;SDS011;18003;-33.830;151.202;2022-11-15T01:02:17;9.93;;;3.00;;
25667;SDS011;18003;-33.830;151.202;2022-11-15T01:04:46;11.50;;;3.00;;
25667;SDS011;18003;-33.830;151.202;2022-11-15T01:07:16;11.50;;;2.70;;
25667;SDS011;18003;-33.830;151.202;2022-11-15T01:09:46;9.53;;;3.00;;
25667;SDS011;18003;-33.830;151.202;2022-11-15T01:12:16;9.53;;;3.10;;
25667;SDS011;18003;-33.830;151.202;2022-11-15T01:14:46;8.78;;;2.72;;
25667;SDS011;18003;-33.830;151.202;2022-11-15T01:17:16;9.45;;;2.90;;
25667;SDS011;18003;-33.830;151.202;2022-11-15T01:19:46;27.52;;;4.05;;
25667;SDS011;18003;-33.830;151.202;2022-11-15T01:22:16;12.15;;;2.92;;
25667;SDS011;18003;-33.830;151.202;2022-11-15T01:24:45;10.00;;;3.22;;
25667;SDS011;18003;-33.830;151.202;2022-11-15T01:27:17;7.67;;;3.12;;
25667;SDS011;18003;-33.830;151.202;2022-11-15T01:29:46;9.95;;;2.95;;
25667;SDS011;18003;-33.830;151.202;2022-11-15T01:32:16;12.88;;;3.30;;
25667;SDS011;18003;-33.830;151.202;2022-11-15T01:34:46;8.03;;;2.45;;
25667;SDS011;18003;-33.830;151.202;2022-11-15T01:37:16;13.93;;;3.30;;
25667;SDS011;18003;-33.830;151.202;2022-11-15T01:39:46;9.38;;;3.05;;
25667;SDS011;18003;-33.830;151.202;2022-11-15T01:42:15;9.43;;;3.05;;
25667;SDS011;18003;-33.830;151.202;2022-11-15T01:44:49;10.78;;;3.55;;
25667;SDS011;18003;-33.830;151.202;2022-11-15T01:49:57;12.33;;;3.37;;
25667;SDS011;18003;-33.830;151.202;2022-11-15T01:52:30;8.93;;;3.27;;
25667;SDS011;18003;-33.830;151.202;2022-11-15T01:55:06;11.08;;;3.08;;
25667;SDS011;18003;-33.830;151.202;2022-11-15T01:57:39;7.40;;;2.58;;
25667;SDS011;18003;-33.830;151.202;2022-11-15T02:00:11;9.33;;;3.47;;
25667;SDS011;18003;-33.830;151.202;2022-11-15T02:02:42;10.25;;;3.30;;
25667;SDS011;18003;-33.830;151.202;2022-11-15T02:05:12;10.50;;;3.37;;
25667;SDS011;18003;-33.830;151.202;2022-11-15T02:07:42;11.68;;;3.98;;
25667;SDS011;18003;-33.830;151.202;2022-11-15T02:10:13;10.85;;;3.77;;
25667;SDS011;18003;-33.830;151.202;2022-11-15T02:12:44;11.70;;;3.42;;
25667;SDS011;18003;-33.830;151.202;2022-11-15T02:15:15;12.73;;;3.40;;
25667;SDS011;18003;-33.830;151.202;2022-11-15T02:17:55;13.55;;;3.25;;
25667;SDS011;18003;-33.830;151.202;2022-11-15T02:20:30;11.18;;;3.17;;
25667;SDS011;18003;-33.830;151.202;2022-11-15T02:30:53;10.75;;;3.90;;
25667;SDS011;18003;-33.830;151.202;2022-11-15T02:33:30;12.88;;;4.47;;
25667;SDS011;18003;-33.830;151.202;2022-11-15T02:39:03;10.68;;;3.67;;
25667;SDS011;18003;-33.830;151.202;2022-11-15T02:41:41;11.55;;;3.60;;
25667;SDS011;18003;-33.830;151.202;2022-11-15T02:44:23;14.70;;;4.00;;
25667;SDS011;18003;-33.830;151.202;2022-11-15T02:46:54;13.40;;;4.40;;
25667;SDS011;18003;-33.830;151.202;2022-11-15T02:49:53;12.37;;;3.75;;
25667;SDS011;18003;-33.830;151.202;2022-11-15T02:52:25;12.07;;;3.60;;
25667;SDS011;18003;-33.830;151.202;2022-11-15T02:54:55;10.78;;;4.08;;
25667;SDS011;18003;-33.830;151.202;2022-11-15T03:00:13;11.80;;;3.35;;
25667;SDS011;18003;-33.830;151.202;2022-11-15T03:02:55;10.20;;;3.50;;
25667;SDS011;18003;-33.830;151.202;2022-11-15T03:08:18;11.05;;;3.33;;
25667;SDS011;18003;-33.830;151.202;2022-11-15T03:17:08;8.35;;;3.50;;
25667;SDS011;18003;-33.830;151.202;2022-11-15T03:19:03;11.38;;;3.80;;
25667;SDS011;18003;-33.830;151.202;2022-11-15T03:21:32;14.30;;;4.00;;
25667;SDS011;18003;-33.830;151.202;2022-11-15T03:24:05;10.33;;;3.40;;
25667;SDS011;18003;-33.830;151.202;2022-11-15T03:26:36;10.13;;;3.90;;
25667;SDS011;18003;-33.830;151.202;2022-11-15T03:29:09;8.38;;;3.80;;
25667;SDS011;18003;-33.830;151.202;2022-11-15T03:31:44;11.55;;;4.22;;
25667;SDS011;18003;-33.830;151.202;2022-11-15T03:37:04;7.80;;;3.20;;
25667;SDS011;18003;-33.830;151.202;2022-11-15T03:39:35;8.58;;;3.58;;
25667;SDS011;18003;-33.830;151.202;2022-11-15T03:47:48;11.18;;;4.12;;
25667;SDS011;18003;-33.830;151.202;2022-11-15T03:50:18;14.10;;;4.40;;
25667;SDS011;18003;-33.830;151.202;2022-11-15T03:55:19;10.82;;;4.05;;
25667;SDS011;18003;-33.830;151.202;2022-11-15T03:57:50;9.33;;;3.77;;
25667;SDS011;18003;-33.830;151.202;2022-11-15T04:00:22;15.32;;;3.90;;
25667;SDS011;18003;-33.830;151.202;2022-11-15T04:02:52;14.67;;;4.70;;
25667;SDS011;18003;-33.830;151.202;2022-11-15T04:05:22;13.88;;;4.00;;
25667;SDS011;18003;-33.830;151.202;2022-11-15T04:07:52;9.50;;;3.50;;
25667;SDS011;18003;-33.830;151.202;2022-11-15T04:10:22;10.65;;;3.92;;
25667;SDS011;18003;-33.830;151.202;2022-11-15T04:12:52;14.10;;;3.77;;
25667;SDS011;18003;-33.830;151.202;2022-11-15T04:15:22;8.75;;;3.30;;
25667;SDS011;18003;-33.830;151.202;2022-11-15T04:17:54;13.15;;;3.80;;
25667;SDS011;18003;-33.830;151.202;2022-11-15T04:20:27;11.53;;;3.40;;
25667;SDS011;18003;-33.830;151.202;2022-11-15T04:23:15;11.68;;;3.47;;
25667;SDS011;18003;-33.830;151.202;2022-11-15T04:26:05;13.88;;;3.40;;
25667;SDS011;18003;-33.830;151.202;2022-11-15T04:28:36;13.43;;;3.47;;
25667;SDS011;18003;-33.830;151.202;2022-11-15T04:31:08;10.58;;;3.12;;
25667;SDS011;18003;-33.830;151.202;2022-11-15T04:33:38;11.97;;;4.17;;
25667;SDS011;18003;-33.830;151.202;2022-11-15T04:36:08;11.78;;;4.05;;
25667;SDS011;18003;-33.830;151.202;2022-11-15T04:38:55;9.88;;;3.27;;
25667;SDS011;18003;-33.830;151.202;2022-11-15T04:41:25;12.35;;;3.62;;
25667;SDS011;18003;-33.830;151.202;2022-11-15T04:43:55;12.53;;;3.75;;
25667;SDS011;18003;-33.830;151.202;2022-11-15T04:46:26;14.53;;;3.72;;
25667;SDS011;18003;-33.830;151.202;2022-11-15T04:48:56;10.58;;;3.80;;
25667;SDS011;18003;-33.830;151.202;2022-11-15T04:51:26;8.33;;;3.65;;
25667;SDS011;18003;-33.830;151.202;2022-11-15T04:53:56;10.18;;;3.37;;
25667;SDS011;18003;-33.830;151.202;2022-11-15T04:56:26;15.65;;;3.67;;
25667;SDS011;18003;-33.830;151.202;2022-11-15T04:58:56;8.50;;;3.00;;
25667;SDS011;18003;-33.830;151.202;2022-11-15T05:01:27;9.93;;;3.72;;
25667;SDS011;18003;-33.830;151.202;2022-11-15T05:03:57;11.63;;;3.52;;
25667;SDS011;18003;-33.830;151.202;2022-11-15T05:06:45;11.28;;;3.47;;
25667;SDS011;18003;-33.830;151.202;2022-11-15T05:09:18;14.93;;;3.37;;
25667;SDS011;18003;-33.830;151.202;2022-11-15T05:11:49;11.77;;;3.33;;
25667;SDS011;18003;-33.830;151.202;2022-11-15T05:14:19;9.18;;;2.90;;
25667;SDS011;18003;-33.830;151.202;2022-11-15T05:16:49;13.43;;;3.22;;
25667;SDS011;18003;-33.830;151.202;2022-11-15T05:19:19;10.78;;;3.33;;
25667;SDS011;18003;-33.830;151.202;2022-11-15T05:21:49;11.03;;;3.25;;
25667;SDS011;18003;-33.830;151.202;2022-11-15T05:24:19;12.15;;;3.20;;
25667;SDS011;18003;-33.830;151.202;2022-11-15T05:26:49;15.58;;;3.27;;
25667;SDS011;18003;-33.830;151.202;2022-11-15T05:29:19;8.58;;;3.00;;
25667;SDS011;18003;-33.830;151.202;2022-11-15T05:31:49;11.50;;;3.35;;
25667;SDS011;18003;-33.830;151.202;2022-11-15T05:34:19;10.63;;;2.90;;
25667;SDS011;18003;-33.830;151.202;2022-11-15T05:36:50;12.95;;;3.67;;
25667;SDS011;18003;-33.830;151.202;2022-11-15T05:39:21;15.90;;;3.45;;
25667;SDS011;18003;-33.830;151.202;2022-11-15T05:41:53;10.10;;;3.37;;
25667;SDS011;18003;-33.830;151.202;2022-11-15T05:44:27;8.93;;;3.20;;
25667;SDS011;18003;-33.830;151.202;2022-11-15T05:46:57;11.48;;;3.15;;
25667;SDS011;18003;-33.830;151.202;2022-11-15T05:49:27;10.95;;;3.12;;
25667;SDS011;18003;-33.830;151.202;2022-11-15T05:51:59;10.38;;;2.98;;
25667;SDS011;18003;-33.830;151.202;2022-11-15T05:54:30;13.80;;;3.87;;
25667;SDS011;18003;-33.830;151.202;2022-11-15T05:57:01;15.20;;;3.87;;
25667;SDS011;18003;-33.830;151.202;2022-11-15T05:59:32;9.88;;;3.22;;
25667;SDS011;18003;-33.830;151.202;2022-11-15T06:04:33;13.55;;;3.55;;
25667;SDS011;18003;-33.830;151.202;2022-11-15T06:07:02;10.90;;;3.15;;
25667;SDS011;18003;-33.830;151.202;2022-11-15T06:09:32;13.35;;;3.60;;
25667;SDS011;18003;-33.830;151.202;2022-11-15T06:12:03;12.75;;;3.62;;
25667;SDS011;18003;-33.830;151.202;2022-11-15T06:14:33;12.53;;;3.70;;
25667;SDS011;18003;-33.830;151.202;2022-11-15T06:17:04;9.53;;;3.17;;
25667;SDS011;18003;-33.830;151.202;2022-11-15T06:19:34;12.07;;;3.35;;
25667;SDS011;18003;-33.830;151.202;2022-11-15T06:22:04;11.65;;;3.20;;
25667;SDS011;18003;-33.830;151.202;2022-11-15T06:24:36;11.90;;;3.50;;
25667;SDS011;18003;-33.830;151.202;2022-11-15T06:27:06;14.65;;;3.98;;
25667;SDS011;18003;-33.830;151.202;2022-11-15T06:29:36;9.68;;;3.33;;
25667;SDS011;18003;-33.830;151.202;2022-11-15T06:32:06;11.70;;;3.40;;
25667;SDS011;18003;-33.830;151.202;2022-11-15T06:34:36;10.68;;;2.98;;
25667;SDS011;18003;-33.830;151.202;2022-11-15T06:37:05;12.98;;;3.08;;
25667;SDS011;18003;-33.830;151.202;2022-11-15T06:39:35;11.88;;;3.42;;
25667;SDS011;18003;-33.830;151.202;2022-11-15T06:42:05;10.40;;;2.95;;
25667;SDS011;18003;-33.830;151.202;2022-11-15T06:44:36;11.38;;;3.27;;
25667;SDS011;18003;-33.830;151.202;2022-11-15T06:47:06;10.35;;;3.37;;
25667;SDS011;18003;-33.830;151.202;2022-11-15T06:49:36;10.28;;;3.70;;
25667;SDS011;18003;-33.830;151.202;2022-11-15T06:52:06;8.10;;;3.30;;
25667;SDS011;18003;-33.830;151.202;2022-11-15T06:54:35;11.20;;;3.58;;
25667;SDS011;18003;-33.830;151.202;2022-11-15T06:57:05;12.00;;;3.62;;
25667;SDS011;18003;-33.830;151.202;2022-11-15T06:59:35;11.45;;;4.00;;
25667;SDS011;18003;-33.830;151.202;2022-11-15T07:02:05;13.30;;;3.90;;
25667;SDS011;18003;-33.830;151.202;2022-11-15T07:04:36;14.87;;;4.22;;
25667;SDS011;18003;-33.830;151.202;2022-11-15T07:07:06;10.20;;;3.87;;
25667;SDS011;18003;-33.830;151.202;2022-11-15T07:09:36;12.40;;;3.75;;
25667;SDS011;18003;-33.830;151.202;2022-11-15T07:12:06;12.70;;;3.77;;
25667;SDS011;18003;-33.830;151.202;2022-11-15T07:14:36;9.83;;;3.72;;
25667;SDS011;18003;-33.830;151.202;2022-11-15T07:17:05;10.80;;;4.00;;
25667;SDS011;18003;-33.830;151.202;2022-11-15T07:19:35;12.80;;;4.03;;
25667;SDS011;18003;-33.830;151.202;2022-11-15T07:22:05;13.93;;;3.85;;
25667;SDS011;18003;-33.830;151.202;2022-11-15T07:24:35;11.80;;;3.30;;
25667;SDS011;18003;-33.830;151.202;2022-11-15T07:27:05;12.18;;;3.50;;
25667;SDS011;18003;-33.830;151.202;2022-11-15T07:29:35;11.70;;;3.80;;
25667;SDS011;18003;-33.830;151.202;2022-11-15T07:32:06;11.48;;;3.77;;
25667;SDS011;18003;-33.830;151.202;2022-11-15T07:34:41;11.50;;;3.65;;
25667;SDS011;18003;-33.830;151.202;2022-11-15T07:37:12;13.48;;;3.60;;
25667;SDS011;18003;-33.830;151.202;2022-11-15T07:39:43;11.70;;;3.47;;
25667;SDS011;18003;-33.830;151.202;2022-11-15T07:42:13;11.73;;;3.55;;
25667;SDS011;18003;-33.830;151.202;2022-11-15T07:45:00;10.05;;;3.72;;
25667;SDS011;18003;-33.830;151.202;2022-11-15T07:47:30;9.33;;;3.33;;
25667;SDS011;18003;-33.830;151.202;2022-11-15T07:50:00;8.60;;;3.30;;
25667;SDS011;18003;-33.830;151.202;2022-11-15T07:52:30;11.15;;;3.37;;
25667;SDS011;18003;-33.830;151.202;2022-11-15T07:55:00;14.43;;;3.55;;
25667;SDS011;18003;-33.830;151.202;2022-11-15T07:57:30;10.28;;;3.40;;
25667;SDS011;18003;-33.830;151.202;2022-11-15T08:00:00;13.55;;;3.60;;
25667;SDS011;18003;-33.830;151.202;2022-11-15T08:02:32;13.70;;;3.40;;
25667;SDS011;18003;-33.830;151.202;2022-11-15T08:05:01;11.30;;;3.90;;
25667;SDS011;18003;-33.830;151.202;2022-11-15T08:07:32;9.98;;;3.40;;
25667;SDS011;18003;-33.830;151.202;2022-11-15T08:10:05;10.45;;;3.20;;
25667;SDS011;18003;-33.830;151.202;2022-11-15T08:12:35;12.45;;;3.40;;
25667;SDS011;18003;-33.830;151.202;2022-11-15T08:15:06;11.50;;;3.60;;
25667;SDS011;18003;-33.830;151.202;2022-11-15T08:17:36;10.08;;;3.37;;
25667;SDS011;18003;-33.830;151.202;2022-11-15T08:20:07;10.88;;;3.30;;
25667;SDS011;18003;-33.830;151.202;2022-11-15T08:22:37;11.53;;;3.72;;
25667;SDS011;18003;-33.830;151.202;2022-11-15T08:25:07;12.75;;;3.37;;
25667;SDS011;18003;-33.830;151.202;2022-11-15T08:27:37;11.40;;;2.90;;
25667;SDS011;18003;-33.830;151.202;2022-11-15T08:30:07;13.30;;;3.95;;
25667;SDS011;18003;-33.830;151.202;2022-11-15T08:32:38;9.13;;;3.47;;
25667;SDS011;18003;-33.830;151.202;2022-11-15T08:35:08;10.68;;;3.35;;
25667;SDS011;18003;-33.830;151.202;2022-11-15T08:37:38;11.20;;;2.77;;
25667;SDS011;18003;-33.830;151.202;2022-11-15T08:40:08;13.62;;;3.75;;
25667;SDS011;18003;-33.830;151.202;2022-11-15T08:42:38;11.73;;;3.22;;
25667;SDS011;18003;-33.830;151.202;2022-11-15T08:45:08;11.48;;;3.15;;
25667;SDS011;18003;-33.830;151.202;2022-11-15T08:47:38;8.10;;;2.85;;
25667;SDS011;18003;-33.830;151.202;2022-11-15T08:50:08;12.10;;;3.22;;
25667;SDS011;18003;-33.830;151.202;2022-11-15T08:52:38;11.43;;;2.87;;
25667;SDS011;18003;-33.830;151.202;2022-11-15T08:55:08;8.80;;;2.87;;
25667;SDS011;18003;-33.830;151.202;2022-11-15T08:57:43;9.08;;;3.00;;
25667;SDS011;18003;-33.830;151.202;2022-11-15T09:00:09;8.13;;;2.87;;
25667;SDS011;18003;-33.830;151.202;2022-11-15T09:02:39;9.07;;;3.00;;
25667;SDS011;18003;-33.830;151.202;2022-11-15T09:05:09;7.10;;;2.70;;
25667;SDS011;18003;-33.830;151.202;2022-11-15T09:07:39;7.92;;;3.10;;
25667;SDS011;18003;-33.830;151.202;2022-11-15T09:10:09;9.60;;;3.20;;
25667;SDS011;18003;-33.830;151.202;2022-11-15T09:12:39;7.28;;;2.90;;
25667;SDS011;18003;-33.830;151.202;2022-11-15T09:15:09;7.75;;;2.77;;
25667;SDS011;18003;-33.830;151.202;2022-11-15T09:17:39;8.35;;;3.12;;
25667;SDS011;18003;-33.830;151.202;2022-11-15T09:20:09;7.90;;;2.80;;
25667;SDS011;18003;-33.830;151.202;2022-11-15T09:22:39;9.43;;;2.92;;
25667;SDS011;18003;-33.830;151.202;2022-11-15T09:25:09;9.08;;;3.15;;
25667;SDS011;18003;-33.830;151.202;2022-11-15T09:27:39;6.53;;;2.77;;
25667;SDS011;18003;-33.830;151.202;2022-11-15T09:30:09;7.42;;;3.20;;
25667;SDS011;18003;-33.830;151.202;2022-11-15T09:32:39;9.98;;;2.98;;
25667;SDS011;18003;-33.830;151.202;2022-11-15T09:35:09;10.65;;;3.00;;
25667;SDS011;18003;-33.830;151.202;2022-11-15T09:37:39;9.18;;;3.20;;
25667;SDS011;18003;-33.830;151.202;2022-11-15T09:40:09;10.00;;;3.47;;
25667;SDS011;18003;-33.830;151.202;2022-11-15T09:48:26;13.45;;;3.45;;
25667;SDS011;18003;-33.830;151.202;2022-11-15T09:50:58;9.50;;;2.90;;
25667;SDS011;18003;-33.830;151.202;2022-11-15T09:56:19;7.95;;;2.67;;
25667;SDS011;18003;-33.830;151.202;2022-11-15T09:59:07;6.78;;;2.75;;
25667;SDS011;18003;-33.830;151.202;2022-11-15T10:01:44;11.83;;;3.92;;
25667;SDS011;18003;-33.830;151.202;2022-11-15T10:04:20;10.38;;;3.50;;
25667;SDS011;18003;-33.830;151.202;2022-11-15T10:07:01;15.20;;;4.47;;
25667;SDS011;18003;-33.830;151.202;2022-11-15T10:09:37;11.85;;;4.33;;
25667;SDS011;18003;-33.830;151.202;2022-11-15T10:12:21;12.82;;;4.25;;
25667;SDS011;18003;-33.830;151.202;2022-11-15T10:14:55;15.95;;;4.53;;
25667;SDS011;18003;-33.830;151.202;2022-11-15T10:20:15;17.75;;;4.53;;
25667;SDS011;18003;-33.830;151.202;2022-11-15T10:22:45;11.85;;;3.58;;
25667;SDS011;18003;-33.830;151.202;2022-11-15T10:25:23;15.90;;;3.75;;
25667;SDS011;18003;-33.830;151.202;2022-11-15T10:28:00;10.60;;;3.20;;
25667;SDS011;18003;-33.830;151.202;2022-11-15T10:30:37;12.37;;;3.40;;
25667;SDS011;18003;-33.830;151.202;2022-11-15T10:49:25;10.85;;;3.30;;
25667;SDS011;18003;-33.830;151.202;2022-11-15T10:54:46;10.15;;;3.05;;
25667;SDS011;18003;-33.830;151.202;2022-11-15T10:57:17;9.60;;;2.90;;
25667;SDS011;18003;-33.830;151.202;2022-11-15T10:59:55;9.28;;;3.17;;
25667;SDS011;18003;-33.830;151.202;2022-11-15T11:02:30;9.63;;;3.10;;
25667;SDS011;18003;-33.830;151.202;2022-11-15T11:05:01;10.15;;;3.33;;
25667;SDS011;18003;-33.830;151.202;2022-11-15T11:07:33;9.78;;;2.80;;
25667;SDS011;18003;-33.830;151.202;2022-11-15T11:10:20;8.63;;;3.05;;
25667;SDS011;18003;-33.830;151.202;2022-11-15T11:12:49;11.15;;;2.95;;
25667;SDS011;18003;-33.830;151.202;2022-11-15T11:15:19;8.63;;;3.22;;
25667;SDS011;18003;-33.830;151.202;2022-11-15T11:18:15;9.70;;;3.00;;
25667;SDS011;18003;-33.830;151.202;2022-11-15T11:20:49;9.63;;;2.83;;
25667;SDS011;18003;-33.830;151.202;2022-11-15T11:23:19;10.63;;;2.92;;
25667;SDS011;18003;-33.830;151.202;2022-11-15T11:28:39;10.82;;;2.60;;
25667;SDS011;18003;-33.830;151.202;2022-11-15T11:31:13;7.78;;;2.50;;
25667;SDS011;18003;-33.830;151.202;2022-11-15T11:36:39;6.83;;;2.17;;
25667;SDS011;18003;-33.830;151.202;2022-11-15T11:41:53;7.42;;;2.65;;
25667;SDS011;18003;-33.830;151.202;2022-11-15T11:47:11;3.98;;;2.00;;
25667;SDS011;18003;-33.830;151.202;2022-11-15T11:49:51;6.62;;;2.05;;
25667;SDS011;18003;-33.830;151.202;2022-11-15T11:52:29;5.25;;;1.80;;
25667;SDS011;18003;-33.830;151.202;2022-11-15T12:00:40;6.28;;;1.90;;
25667;SDS011;18003;-33.830;151.202;2022-11-15T12:06:04;4.78;;;1.85;;
25667;SDS011;18003;-33.830;151.202;2022-11-15T12:13:42;4.28;;;1.92;;
25667;SDS011;18003;-33.830;151.202;2022-11-15T12:18:53;6.50;;;1.90;;
25667;SDS011;18003;-33.830;151.202;2022-11-15T12:24:14;3.50;;;1.85;;
25667;SDS011;18003;-33.830;151.202;2022-11-15T12:26:51;3.75;;;1.95;;
25667;SDS011;18003;-33.830;151.202;2022-11-15T12:29:37;1.92;;;1.72;;
25667;SDS011;18003;-33.830;151.202;2022-11-15T12:32:27;3.90;;;2.08;;
25667;SDS011;18003;-33.830;151.202;2022-11-15T12:34:48;2.80;;;1.70;;
25667;SDS011;18003;-33.830;151.202;2022-11-15T12:40:23;2.83;;;1.32;;
25667;SDS011;18003;-33.830;151.202;2022-11-15T12:42:58;4.33;;;1.62;;
25667;SDS011;18003;-33.830;151.202;2022-11-15T12:45:35;2.67;;;1.42;;
25667;SDS011;18003;-33.830;151.202;2022-11-15T12:58:48;1.62;;;1.40;;
25667;SDS011;18003;-33.830;151.202;2022-11-15T13:06:54;5.40;;;1.62;;
25667;SDS011;18003;-33.830;151.202;2022-11-15T13:15:00;4.20;;;1.30;;
25667;SDS011;18003;-33.830;151.202;2022-11-15T13:28:10;2.40;;;1.25;;
25667;SDS011;18003;-33.830;151.202;2022-11-15T13:30:40;2.42;;;1.05;;
25667;SDS011;18003;-33.830;151.202;2022-11-15T13:33:27;3.17;;;1.30;;
25667;SDS011;18003;-33.830;151.202;2022-11-15T13:35:59;3.22;;;1.30;;
25667;SDS011;18003;-33.830;151.202;2022-11-15T13:40:57;1.52;;;1.10;;
25667;SDS011;18003;-33.830;151.202;2022-11-15T13:43:29;3.90;;;1.42;;
25667;SDS011;18003;-33.830;151.202;2022-11-15T13:48:42;2.42;;;1.40;;
25667;SDS011;18003;-33.830;151.202;2022-11-15T13:51:22;3.47;;;1.50;;
25667;SDS011;18003;-33.830;151.202;2022-11-15T13:56:45;1.67;;;1.10;;
25667;SDS011;18003;-33.830;151.202;2022-11-15T14:01:59;5.58;;;1.37;;
25667;SDS011;18003;-33.830;151.202;2022-11-15T14:04:30;3.62;;;1.20;;
25667;SDS011;18003;-33.830;151.202;2022-11-15T14:07:01;3.35;;;1.25;;
25667;SDS011;18003;-33.830;151.202;2022-11-15T14:09:33;3.58;;;1.42;;
25667;SDS011;18003;-33.830;151.202;2022-11-15T14:12:25;3.40;;;1.30;;
25667;SDS011;18003;-33.830;151.202;2022-11-15T14:14:58;3.22;;;1.50;;
25667;SDS011;18003;-33.830;151.202;2022-11-15T14:20:19;4.47;;;1.50;;
25667;SDS011;18003;-33.830;151.202;2022-11-15T14:22:57;3.52;;;1.40;;
25667;SDS011;18003;-33.830;151.202;2022-11-15T14:25:29;3.75;;;1.55;;
25667;SDS011;18003;-33.830;151.202;2022-11-15T14:30:51;3.58;;;1.20;;
25667;SDS011;18003;-33.830;151.202;2022-11-15T14:36:11;2.50;;;1.30;;
25667;SDS011;18003;-33.830;151.202;2022-11-15T14:38:34;3.75;;;1.37;;
25667;SDS011;18003;-33.830;151.202;2022-11-15T14:41:04;3.87;;;1.47;;
25667;SDS011;18003;-33.830;151.202;2022-11-15T14:43:35;3.67;;;1.47;;
25667;SDS011;18003;-33.830;151.202;2022-11-15T14:46:05;2.10;;;1.30;;
25667;SDS011;18003;-33.830;151.202;2022-11-15T14:48:35;2.65;;;1.40;;
25667;SDS011;18003;-33.830;151.202;2022-11-15T14:51:15;4.22;;;1.40;;
25667;SDS011;18003;-33.830;151.202;2022-11-15T14:53:43;4.08;;;1.20;;
25667;SDS011;18003;-33.830;151.202;2022-11-15T14:56:14;2.45;;;1.20;;
25667;SDS011;18003;-33.830;151.202;2022-11-15T14:58:44;5.10;;;1.45;;
25667;SDS011;18003;-33.830;151.202;2022-11-15T15:01:19;3.47;;;1.40;;
25667;SDS011;18003;-33.830;151.202;2022-11-15T15:03:46;3.62;;;1.60;;
25667;SDS011;18003;-33.830;151.202;2022-11-15T15:06:17;2.42;;;1.27;;
25667;SDS011;18003;-33.830;151.202;2022-11-15T15:08:48;1.95;;;1.32;;
25667;SDS011;18003;-33.830;151.202;2022-11-15T15:11:21;3.33;;;1.32;;
25667;SDS011;18003;-33.830;151.202;2022-11-15T15:13:54;3.05;;;1.52;;
25667;SDS011;18003;-33.830;151.202;2022-11-15T15:16:25;3.37;;;1.60;;
25667;SDS011;18003;-33.830;151.202;2022-11-15T15:18:55;3.27;;;1.37;;
25667;SDS011;18003;-33.830;151.202;2022-11-15T15:21:31;3.05;;;1.60;;
25667;SDS011;18003;-33.830;151.202;2022-11-15T15:23:58;3.77;;;1.17;;
25667;SDS011;18003;-33.830;151.202;2022-11-15T15:26:28;2.90;;;1.30;;
25667;SDS011;18003;-33.830;151.202;2022-11-15T15:28:59;4.95;;;1.42;;
25667;SDS011;18003;-33.830;151.202;2022-11-15T15:31:29;2.52;;;1.27;;
25667;SDS011;18003;-33.830;151.202;2022-11-15T15:34:00;4.87;;;1.42;;
25667;SDS011;18003;-33.830;151.202;2022-11-15T15:36:30;4.75;;;1.85;;
25667;SDS011;18003;-33.830;151.202;2022-11-15T15:39:00;2.35;;;1.40;;
25667;SDS011;18003;-33.830;151.202;2022-11-15T15:41:30;4.67;;;1.60;;
25667;SDS011;18003;-33.830;151.202;2022-11-15T15:44:00;3.45;;;1.60;;
25667;SDS011;18003;-33.830;151.202;2022-11-15T15:46:30;3.12;;;1.50;;
25667;SDS011;18003;-33.830;151.202;2022-11-15T15:49:01;3.17;;;1.60;;
25667;SDS011;18003;-33.830;151.202;2022-11-15T15:51:31;2.67;;;1.70;;
25667;SDS011;18003;-33.830;151.202;2022-11-15T15:54:01;2.87;;;1.50;;
25667;SDS011;18003;-33.830;151.202;2022-11-15T15:56:31;2.65;;;1.60;;
25667;SDS011;18003;-33.830;151.202;2022-11-15T15:59:01;3.65;;;1.60;;
25667;SDS011;18003;-33.830;151.202;2022-11-15T16:01:31;2.22;;;1.42;;
25667;SDS011;18003;-33.830;151.202;2022-11-15T16:04:01;4.42;;;1.85;;
25667;SDS011;18003;-33.830;151.202;2022-11-15T16:06:35;4.40;;;1.80;;
25667;SDS011;18003;-33.830;151.202;2022-11-15T16:09:08;5.85;;;1.50;;
25667;SDS011;18003;-33.830;151.202;2022-11-15T16:11:38;4.97;;;1.60;;
25667;SDS011;18003;-33.830;151.202;2022-11-15T16:14:09;4.62;;;1.40;;
25667;SDS011;18003;-33.830;151.202;2022-11-15T16:16:39;3.67;;;1.60;;
25667;SDS011;18003;-33.830;151.202;2022-11-15T16:19:09;2.90;;;1.50;;
25667;SDS011;18003;-33.830;151.202;2022-11-15T16:21:40;3.23;;;1.57;;
25667;SDS011;18003;-33.830;151.202;2022-11-15T16:24:10;3.43;;;1.50;;
25667;SDS011;18003;-33.830;151.202;2022-11-15T16:26:41;3.35;;;1.50;;
25667;SDS011;18003;-33.830;151.202;2022-11-15T16:29:11;3.52;;;1.60;;
25667;SDS011;18003;-33.830;151.202;2022-11-15T16:31:41;3.50;;;1.55;;
25667;SDS011;18003;-33.830;151.202;2022-11-15T16:34:11;2.22;;;1.52;;
25667;SDS011;18003;-33.830;151.202;2022-11-15T16:36:41;4.08;;;1.77;;
25667;SDS011;18003;-33.830;151.202;2022-11-15T16:39:11;2.50;;;1.35;;
25667;SDS011;18003;-33.830;151.202;2022-11-15T16:44:17;6.35;;;1.82;;
25667;SDS011;18003;-33.830;151.202;2022-11-15T16:46:43;2.98;;;1.42;;
25667;SDS011;18003;-33.830;151.202;2022-11-15T16:49:14;4.55;;;1.55;;
25667;SDS011;18003;-33.830;151.202;2022-11-15T16:51:45;5.85;;;1.60;;
25667;SDS011;18003;-33.830;151.202;2022-11-15T16:54:16;3.92;;;1.52;;
25667;SDS011;18003;-33.830;151.202;2022-11-15T16:56:46;4.87;;;1.57;;
25667;SDS011;18003;-33.830;151.202;2022-11-15T16:59:16;3.58;;;1.47;;
25667;SDS011;18003;-33.830;151.202;2022-11-15T17:01:46;4.97;;;1.77;;
25667;SDS011;18003;-33.830;151.202;2022-11-15T17:04:20;4.55;;;1.65;;
25667;SDS011;18003;-33.830;151.202;2022-11-15T17:06:50;4.67;;;1.70;;